Bejou, Minnesota
Current Conditions -  °F | °C
As of 4:15 PM on Thursday 18 Dec 2014 (Local Time) from K3N8 Reporting Station
Overcast Overcast  
Wind Chill: 10°   Ceiling: 6000
Heat Index: 19°   Visibility: 10mi
Dew Point: 13°   Wind: 7mph
Humidity: 78%   Direction: 150°SSE
Pressure: 30.17"   Gusts: NA
Location:  47.44°N, 95.98°W
Report Text: K3N8 182215Z AUTO 15006KT 10SM OVC060 M07/M10 A3017 RMK AO2 T10731105
Loading
Personal Weather Stations






























Interactive Weather Map New forecast layout! Learn more

10-Day Weather Forecast

Advertisements
Track Severe Weather on mobile